JST452 YMML-YSSY
Flight info
| Callsign | JST452 |
|---|---|
| Flight time | 1h 7m |
| Altitude | 39000 |
| Route | DOSEL2/34 DOSEL Y59 RIVET |
| Aircraft | A20N/M-SDE2E3FGHIRWXY/LB1 |
Departure
| Time | 2026-05-04 06:55 |
|---|---|
| Airport | Melbourne Airport (YMML) |
Arrival
| Time | 2026-05-04 08:02 |
|---|---|
| Airport | Sydney Kingsford Smith International Airport (YSSY) |
| Time | Latitude | Longitude | Altitude | Speed | Heading |
|---|---|---|---|---|---|
| 2026-05-04 06:29 | -37.67134 | 144.84540 | 360 ft | 0 kts | 351° |
| 2026-05-04 06:42 | -37.67138 | 144.84541 | 364 ft | 1 kts | 351° |
| 2026-05-04 06:42 | -37.67146 | 144.84542 | 362 ft | 1 kts | 351° |
| 2026-05-04 06:44 | -37.67185 | 144.84557 | 363 ft | 1 kts | 322° |
| 2026-05-04 06:44 | -37.67191 | 144.84563 | 364 ft | 2 kts | 315° |
| 2026-05-04 06:44 | -37.67201 | 144.84578 | 361 ft | 2 kts | 296° |
| 2026-05-04 06:45 | -37.67206 | 144.84596 | 358 ft | 2 kts | 272° |
| 2026-05-04 06:45 | -37.67206 | 144.84597 | 358 ft | 0 kts | 271° |
| 2026-05-04 06:48 | -37.67349 | 144.84299 | 363 ft | 19 kts | 173° |
| 2026-05-04 06:48 | -37.67498 | 144.84325 | 361 ft | 24 kts | 172° |
| 2026-05-04 06:49 | -37.67640 | 144.84351 | 358 ft | 20 kts | 172° |
| 2026-05-04 06:50 | -37.67873 | 144.84112 | 356 ft | 0 kts | 262° |
| 2026-05-04 06:53 | -37.67873 | 144.84111 | 350 ft | 1 kts | 262° |
| 2026-05-04 06:53 | -37.67878 | 144.84064 | 350 ft | 11 kts | 262° |
| 2026-05-04 06:54 | -37.67877 | 144.83969 | 352 ft | 4 kts | 317° |
| 2026-05-04 06:54 | -37.67770 | 144.83947 | 359 ft | 52 kts | 352° |
| 2026-05-04 06:54 | -37.67123 | 144.83828 | 379 ft | 132 kts | 352° |
| 2026-05-04 06:54 | -37.66093 | 144.83620 | 862 ft | 161 kts | 352° |
| 2026-05-04 06:55 | -37.64896 | 144.83355 | 1485 ft | 187 kts | 348° |
| 2026-05-04 06:55 | -37.63569 | 144.83058 | 2346 ft | 199 kts | 349° |
| 2026-05-04 06:55 | -37.62142 | 144.82788 | 3106 ft | 221 kts | 347° |
| 2026-05-04 06:55 | -37.60552 | 144.82547 | 3982 ft | 234 kts | 352° |
| 2026-05-04 06:56 | -37.58924 | 144.82629 | 4934 ft | 240 kts | 2° |
| 2026-05-04 06:57 | -37.47519 | 144.89929 | 11178 ft | 306 kts | 18° |
| 2026-05-04 06:58 | -37.44900 | 144.91515 | 12276 ft | 318 kts | 26° |
| 2026-05-04 06:58 | -37.43125 | 144.93189 | 13488 ft | 322 kts | 37° |
| 2026-05-04 06:58 | -37.41663 | 144.95342 | 14587 ft | 323 kts | 50° |
| 2026-05-04 06:58 | -37.40808 | 144.96876 | 15248 ft | 324 kts | 50° |
| 2026-05-04 06:59 | -37.39451 | 144.99245 | 15656 ft | 345 kts | 49° |
| 2026-05-04 06:59 | -37.37994 | 145.01756 | 15890 ft | 368 kts | 49° |
| 2026-05-04 06:59 | -37.36462 | 145.04422 | 16403 ft | 380 kts | 50° |
| 2026-05-04 06:59 | -37.34915 | 145.07143 | 17212 ft | 384 kts | 50° |
| 2026-05-04 07:01 | -37.23735 | 145.26863 | 22193 ft | 409 kts | 49° |
| 2026-05-04 07:01 | -37.22081 | 145.29770 | 22904 ft | 411 kts | 48° |
| 2026-05-04 07:02 | -37.20409 | 145.32707 | 23513 ft | 417 kts | 48° |
| 2026-05-04 07:02 | -37.18695 | 145.35705 | 23669 ft | 432 kts | 48° |
| 2026-05-04 07:02 | -37.16912 | 145.38817 | 23823 ft | 445 kts | 48° |
| 2026-05-04 07:02 | -37.15074 | 145.42027 | 23968 ft | 458 kts | 48° |
| 2026-05-04 07:03 | -37.13206 | 145.45292 | 24367 ft | 462 kts | 47° |
| 2026-05-04 07:03 | -37.11335 | 145.48568 | 24994 ft | 461 kts | 47° |
| 2026-05-04 07:03 | -37.09474 | 145.51826 | 25647 ft | 458 kts | 46° |
| 2026-05-04 07:03 | -37.07621 | 145.55062 | 26288 ft | 456 kts | 46° |
| 2026-05-04 07:04 | -37.05772 | 145.58284 | 26917 ft | 455 kts | 45° |
| 2026-05-04 07:04 | -37.03952 | 145.61449 | 27502 ft | 454 kts | 45° |
| 2026-05-04 07:04 | -37.02124 | 145.64623 | 28071 ft | 453 kts | 45° |
| 2026-05-04 07:04 | -37.00277 | 145.67823 | 28562 ft | 454 kts | 45° |
| 2026-05-04 07:05 | -36.98426 | 145.71028 | 29137 ft | 453 kts | 44° |
| 2026-05-04 07:05 | -36.96587 | 145.74211 | 29715 ft | 452 kts | 44° |
| 2026-05-04 07:05 | -36.94741 | 145.77403 | 30256 ft | 452 kts | 44° |
| 2026-05-04 07:05 | -36.92928 | 145.80532 | 30753 ft | 450 kts | 44° |
| 2026-05-04 07:06 | -36.89257 | 145.86859 | 31720 ft | 449 kts | 44° |
| 2026-05-04 07:06 | -36.87425 | 145.90012 | 32089 ft | 451 kts | 44° |
| 2026-05-04 07:06 | -36.85579 | 145.93185 | 32514 ft | 451 kts | 44° |
| 2026-05-04 07:07 | -36.83739 | 145.96348 | 32972 ft | 451 kts | 44° |
| 2026-05-04 07:08 | -36.70805 | 146.18481 | 35310 ft | 455 kts | 45° |
| 2026-05-04 07:09 | -36.68934 | 146.21674 | 35608 ft | 456 kts | 45° |
| 2026-05-04 07:09 | -36.67059 | 146.24869 | 35871 ft | 457 kts | 45° |
| 2026-05-04 07:09 | -36.65180 | 146.28069 | 36145 ft | 458 kts | 45° |
| 2026-05-04 07:09 | -36.63297 | 146.31272 | 36415 ft | 458 kts | 45° |
| 2026-05-04 07:10 | -36.61413 | 146.34474 | 36662 ft | 458 kts | 45° |
| 2026-05-04 07:10 | -36.59532 | 146.37668 | 36907 ft | 459 kts | 45° |
| 2026-05-04 07:12 | -36.46224 | 146.60179 | 38470 ft | 464 kts | 45° |
| 2026-05-04 07:12 | -36.44305 | 146.63413 | 38672 ft | 465 kts | 45° |
| 2026-05-04 07:12 | -36.42388 | 146.66643 | 38856 ft | 464 kts | 45° |
| 2026-05-04 07:12 | -36.40472 | 146.69868 | 38976 ft | 464 kts | 45° |
| 2026-05-04 07:13 | -36.38554 | 146.73091 | 39001 ft | 464 kts | 45° |
| 2026-05-04 07:13 | -36.34750 | 146.79478 | 39000 ft | 463 kts | 45° |
| 2026-05-04 07:14 | -36.25198 | 146.95458 | 39010 ft | 461 kts | 45° |
| 2026-05-04 07:15 | -36.21371 | 147.01839 | 38997 ft | 461 kts | 45° |
| 2026-05-04 07:15 | -36.17539 | 147.08221 | 39006 ft | 461 kts | 44° |
| 2026-05-04 07:16 | -36.13721 | 147.14562 | 39010 ft | 460 kts | 44° |
| 2026-05-04 07:16 | -36.09910 | 147.20878 | 39018 ft | 460 kts | 44° |
| 2026-05-04 07:17 | -36.06057 | 147.27255 | 39003 ft | 461 kts | 44° |
| 2026-05-04 07:17 | -36.02216 | 147.33600 | 39018 ft | 461 kts | 44° |
| 2026-05-04 07:18 | -35.98395 | 147.39901 | 39021 ft | 461 kts | 44° |
| 2026-05-04 07:18 | -35.94551 | 147.46228 | 39029 ft | 461 kts | 44° |
| 2026-05-04 07:19 | -35.90706 | 147.52545 | 39036 ft | 461 kts | 44° |
| 2026-05-04 07:19 | -35.86854 | 147.58860 | 39034 ft | 461 kts | 44° |
| 2026-05-04 07:20 | -35.82988 | 147.65189 | 39037 ft | 461 kts | 44° |
| 2026-05-04 07:20 | -35.79131 | 147.71492 | 39033 ft | 461 kts | 44° |
| 2026-05-04 07:22 | -35.63633 | 147.96698 | 39042 ft | 462 kts | 44° |
| 2026-05-04 07:23 | -35.59769 | 148.02952 | 39048 ft | 462 kts | 44° |
| 2026-05-04 07:23 | -35.55873 | 148.09248 | 39059 ft | 463 kts | 44° |
| 2026-05-04 07:24 | -35.51964 | 148.15553 | 39060 ft | 463 kts | 44° |
| 2026-05-04 07:24 | -35.48068 | 148.21827 | 39050 ft | 463 kts | 43° |
| 2026-05-04 07:26 | -35.32408 | 148.46927 | 39055 ft | 464 kts | 43° |
| 2026-05-04 07:27 | -35.28508 | 148.53152 | 39065 ft | 464 kts | 43° |
| 2026-05-04 07:27 | -35.24580 | 148.59408 | 39066 ft | 464 kts | 43° |
| 2026-05-04 07:28 | -35.20636 | 148.65680 | 39056 ft | 464 kts | 43° |
| 2026-05-04 07:28 | -35.16698 | 148.71932 | 39053 ft | 464 kts | 43° |
| 2026-05-04 07:29 | -35.12750 | 148.78186 | 39078 ft | 464 kts | 43° |
| 2026-05-04 07:29 | -35.08803 | 148.84427 | 39067 ft | 464 kts | 43° |
| 2026-05-04 07:30 | -35.04861 | 148.90653 | 39057 ft | 463 kts | 43° |
| 2026-05-04 07:30 | -35.00917 | 148.96867 | 39056 ft | 463 kts | 43° |
| 2026-05-04 07:31 | -34.96999 | 149.03030 | 39056 ft | 462 kts | 43° |
| 2026-05-04 07:33 | -34.83291 | 149.24514 | 36865 ft | 454 kts | 42° |
| 2026-05-04 07:33 | -34.81376 | 149.27504 | 36256 ft | 454 kts | 42° |
| 2026-05-04 07:33 | -34.79414 | 149.30565 | 35598 ft | 451 kts | 42° |
| 2026-05-04 07:33 | -34.77490 | 149.33567 | 34768 ft | 449 kts | 42° |
| 2026-05-04 07:34 | -34.75572 | 149.36555 | 33867 ft | 448 kts | 42° |
| 2026-05-04 07:34 | -34.73773 | 149.39643 | 32837 ft | 456 kts | 49° |
| 2026-05-04 07:34 | -34.72218 | 149.43028 | 31875 ft | 460 kts | 53° |
| 2026-05-04 07:34 | -34.70737 | 149.46460 | 30928 ft | 457 kts | 53° |
| 2026-05-04 07:35 | -34.69257 | 149.49876 | 30103 ft | 452 kts | 53° |
| 2026-05-04 07:35 | -34.67803 | 149.53230 | 29278 ft | 444 kts | 53° |
| 2026-05-04 07:35 | -34.66369 | 149.56524 | 28402 ft | 438 kts | 53° |
| 2026-05-04 07:35 | -34.64955 | 149.59760 | 27558 ft | 432 kts | 53° |
| 2026-05-04 07:36 | -34.63615 | 149.62822 | 26793 ft | 425 kts | 53° |
| 2026-05-04 07:36 | -34.62233 | 149.65977 | 25960 ft | 420 kts | 53° |
| 2026-05-04 07:38 | -34.53019 | 149.86911 | 20444 ft | 386 kts | 54° |
| 2026-05-04 07:38 | -34.51761 | 149.89758 | 19662 ft | 382 kts | 54° |
| 2026-05-04 07:38 | -34.50515 | 149.92575 | 18991 ft | 376 kts | 55° |
| 2026-05-04 07:38 | -34.49289 | 149.95347 | 18298 ft | 371 kts | 55° |
| 2026-05-04 07:39 | -34.48074 | 149.98090 | 17513 ft | 366 kts | 55° |
| 2026-05-04 07:39 | -34.46878 | 150.00790 | 16769 ft | 362 kts | 55° |
| 2026-05-04 07:39 | -34.45695 | 150.03462 | 16026 ft | 357 kts | 55° |
| 2026-05-04 07:39 | -34.44526 | 150.06099 | 15301 ft | 354 kts | 55° |
| 2026-05-04 07:40 | -34.43366 | 150.08714 | 14578 ft | 350 kts | 55° |
| 2026-05-04 07:40 | -34.42221 | 150.11300 | 13958 ft | 346 kts | 55° |
| 2026-05-04 07:40 | -34.41089 | 150.13849 | 13227 ft | 342 kts | 55° |
| 2026-05-04 07:40 | -34.39966 | 150.16375 | 12510 ft | 338 kts | 55° |
| 2026-05-04 07:41 | -34.38860 | 150.18862 | 11827 ft | 332 kts | 55° |
| 2026-05-04 07:41 | -34.37764 | 150.21319 | 11111 ft | 329 kts | 55° |
| 2026-05-04 07:41 | -34.36682 | 150.23744 | 10423 ft | 325 kts | 55° |
| 2026-05-04 07:41 | -34.35626 | 150.26113 | 9772 ft | 322 kts | 55° |
| 2026-05-04 07:42 | -34.34563 | 150.28495 | 8998 ft | 320 kts | 55° |
| 2026-05-04 07:42 | -34.33509 | 150.30854 | 8257 ft | 318 kts | 56° |
| 2026-05-04 07:42 | -34.32456 | 150.33199 | 7778 ft | 314 kts | 56° |
| 2026-05-04 07:42 | -34.31419 | 150.35529 | 7975 ft | 319 kts | 56° |
| 2026-05-04 07:43 | -34.30367 | 150.37877 | 7993 ft | 319 kts | 56° |
| 2026-05-04 07:43 | -34.29315 | 150.40235 | 7992 ft | 317 kts | 56° |
| 2026-05-04 07:43 | -34.28262 | 150.42587 | 7994 ft | 317 kts | 56° |
| 2026-05-04 07:43 | -34.27206 | 150.44941 | 7991 ft | 318 kts | 56° |
| 2026-05-04 07:44 | -34.26157 | 150.47291 | 7992 ft | 318 kts | 55° |
| 2026-05-04 07:44 | -34.25462 | 150.48843 | 7992 ft | 317 kts | 55° |
| 2026-05-04 07:44 | -34.24050 | 150.51990 | 7989 ft | 318 kts | 56° |
| 2026-05-04 07:44 | -34.23011 | 150.54316 | 7987 ft | 319 kts | 56° |
| 2026-05-04 07:45 | -34.21961 | 150.56676 | 7986 ft | 318 kts | 55° |
| 2026-05-04 07:45 | -34.20912 | 150.59024 | 7984 ft | 319 kts | 55° |
| 2026-05-04 07:45 | -34.19859 | 150.61374 | 7975 ft | 318 kts | 55° |
| 2026-05-04 07:45 | -34.18811 | 150.63710 | 7985 ft | 316 kts | 56° |
| 2026-05-04 07:46 | -34.18102 | 150.65289 | 7979 ft | 317 kts | 55° |
| 2026-05-04 07:46 | -34.17067 | 150.67599 | 7978 ft | 317 kts | 56° |
| 2026-05-04 07:46 | -34.16013 | 150.69945 | 7985 ft | 317 kts | 56° |
| 2026-05-04 07:46 | -34.14961 | 150.72282 | 7982 ft | 317 kts | 56° |
| 2026-05-04 07:47 | -34.13906 | 150.74620 | 7983 ft | 317 kts | 56° |
| 2026-05-04 07:47 | -34.12848 | 150.76967 | 7981 ft | 317 kts | 55° |
| 2026-05-04 07:47 | -34.11791 | 150.79307 | 7981 ft | 317 kts | 55° |
| 2026-05-04 07:49 | -34.04550 | 150.95376 | 5994 ft | 308 kts | 56° |
| 2026-05-04 07:49 | -34.03549 | 150.97664 | 5988 ft | 311 kts | 62° |
| 2026-05-04 07:49 | -34.03113 | 151.00254 | 5994 ft | 323 kts | 86° |
| 2026-05-04 07:50 | -34.03561 | 151.02911 | 5996 ft | 328 kts | 111° |
| 2026-05-04 07:50 | -34.04841 | 151.05185 | 5995 ft | 331 kts | 135° |
| 2026-05-04 07:50 | -34.06613 | 151.06976 | 5965 ft | 332 kts | 149° |
| 2026-05-04 07:50 | -34.08692 | 151.08121 | 5784 ft | 325 kts | 166° |
| 2026-05-04 07:51 | -34.10889 | 151.08629 | 5434 ft | 318 kts | 175° |
| 2026-05-04 07:51 | -34.13056 | 151.09061 | 4797 ft | 316 kts | 172° |
| 2026-05-04 07:51 | -34.15170 | 151.09561 | 4116 ft | 312 kts | 171° |
| 2026-05-04 07:51 | -34.17305 | 151.10105 | 3427 ft | 313 kts | 170° |
| 2026-05-04 07:52 | -34.19435 | 151.10661 | 3115 ft | 314 kts | 169° |
| 2026-05-04 07:52 | -34.21508 | 151.11447 | 3002 ft | 311 kts | 152° |
| 2026-05-04 07:52 | -34.23107 | 151.13062 | 2983 ft | 291 kts | 124° |
| 2026-05-04 07:52 | -34.23911 | 151.15169 | 2982 ft | 264 kts | 95° |
| 2026-05-04 07:53 | -34.23973 | 151.17274 | 2986 ft | 243 kts | 83° |
| 2026-05-04 07:54 | -34.18421 | 151.23693 | 2990 ft | 173 kts | 354° |
| 2026-05-04 07:55 | -34.17223 | 151.23549 | 2991 ft | 172 kts | 347° |
| 2026-05-04 07:55 | -34.16028 | 151.23279 | 2992 ft | 174 kts | 345° |
| 2026-05-04 07:55 | -34.14856 | 151.22972 | 2993 ft | 171 kts | 345° |
| 2026-05-04 07:55 | -34.13695 | 151.22664 | 2995 ft | 171 kts | 345° |
| 2026-05-04 07:56 | -34.12556 | 151.22360 | 2993 ft | 167 kts | 346° |
| 2026-05-04 07:56 | -34.11407 | 151.22056 | 2938 ft | 167 kts | 346° |
| 2026-05-04 07:56 | -34.10275 | 151.21755 | 2747 ft | 165 kts | 346° |
| 2026-05-04 07:56 | -34.09180 | 151.21465 | 2537 ft | 160 kts | 346° |
| 2026-05-04 07:57 | -34.08090 | 151.21175 | 2325 ft | 159 kts | 348° |
| 2026-05-04 07:57 | -34.07058 | 151.20903 | 2131 ft | 150 kts | 347° |
| 2026-05-04 07:57 | -34.06021 | 151.20595 | 1942 ft | 153 kts | 346° |
| 2026-05-04 07:57 | -34.05014 | 151.20284 | 1769 ft | 150 kts | 347° |
| 2026-05-04 07:58 | -34.03961 | 151.19986 | 1521 ft | 165 kts | 349° |
| 2026-05-04 07:58 | -34.02813 | 151.19713 | 1194 ft | 158 kts | 350° |
| 2026-05-04 07:58 | -34.01838 | 151.19463 | 1002 ft | 130 kts | 351° |
| 2026-05-04 07:58 | -34.01023 | 151.19255 | 908 ft | 109 kts | 351° |
| 2026-05-04 07:59 | -34.00172 | 151.19002 | 823 ft | 147 kts | 350° |
| 2026-05-04 07:59 | -33.99181 | 151.18753 | 690 ft | 137 kts | 349° |
| 2026-05-04 07:59 | -33.98324 | 151.18517 | 485 ft | 118 kts | 3° |
| 2026-05-04 07:59 | -33.97559 | 151.18356 | 321 ft | 106 kts | 354° |
| 2026-05-04 08:00 | -33.96826 | 151.18156 | 191 ft | 109 kts | 351° |
| 2026-05-04 08:00 | -33.96075 | 151.17969 | 54 ft | 108 kts | 350° |
| 2026-05-04 08:00 | -33.95417 | 151.17801 | 22 ft | 60 kts | 348° |
| 2026-05-04 08:02 | -33.95265 | 151.17645 | 21 ft | 0 kts | 264° |
| 2026-05-04 08:02 | -33.95265 | 151.17623 | 19 ft | 9 kts | 273° |
| 2026-05-04 08:02 | -33.95188 | 151.17540 | 18 ft | 19 kts | 349° |
| 2026-05-04 08:03 | -33.95052 | 151.17506 | 20 ft | 21 kts | 349° |
| 2026-05-04 08:03 | -33.94903 | 151.17465 | 19 ft | 24 kts | 348° |
| 2026-05-04 08:03 | -33.94739 | 151.17424 | 26 ft | 24 kts | 347° |
| 2026-05-04 08:03 | -33.94576 | 151.17381 | 28 ft | 25 kts | 348° |
| 2026-05-04 08:04 | -33.94404 | 151.17336 | 28 ft | 26 kts | 349° |
| 2026-05-04 08:04 | -33.94218 | 151.17285 | 23 ft | 29 kts | 348° |
| 2026-05-04 08:04 | -33.94030 | 151.17239 | 21 ft | 22 kts | 347° |
| 2026-05-04 08:04 | -33.93959 | 151.17287 | 18 ft | 4 kts | 69° |
| 2026-05-04 08:05 | -33.93958 | 151.17288 | 18 ft | 1 kts | 70° |
| 2026-05-04 08:05 | -33.93958 | 151.17290 | 18 ft | 0 kts | 69° |
| 2026-05-04 08:06 | -33.93948 | 151.17326 | 17 ft | 17 kts | 72° |
| 2026-05-04 08:08 | -33.93570 | 151.17829 | 30 ft | 11 kts | 8° |
| 2026-05-04 08:08 | -33.93518 | 151.17874 | 30 ft | 6 kts | 88° |